SCIE/CCP METAR and TAF weather

Enter ICAO airport designator
Station Type Date Time Source
SCIE METAR 2024/04/15 08:00 UTC NOAA

SCIE 150800Z 02004KT 9999 OVC020 14/13 Q1016


Station Type Date Time Source
SCIE Decoded METAR 2024/04/15 08:00 UTC NOAA

Concepcion, Chile (SCIE) 36-46S 073-03W
Apr 15, 2024 - 04:00 AM EDT / 2024.04.15 0800 UTC
Wind: from the NNE (020 degrees) at 5 MPH (4 KT):0
Visibility: greater than 7 mile(s):0
Sky conditions: overcast
Temperature: 57 F (14 C)
Dew Point: 55 F (13 C)
Relative Humidity: 93%
Pressure (altimeter): 30.00 in. Hg (1016 hPa)
ob: SCIE 150800Z 02004KT 9999 OVC020 14/13 Q1016
cycle: 8

Station Type Date Time Source
SCIE TAF 2024/04/15 21:00 UTC NOAA